Albrightsville, Pennsylvania
Current Conditions -  °F | °C
As of 4:53 AM on Monday 22 Dec 2014 (Local Time) from KMPO Reporting Station
Haze Haze  
Wind Chill: -6°   Ceiling: 200
Heat Index: -3°   Visibility: 6mi
Dew Point: -4°   Wind: 5mph
Humidity: 92%   Direction: 110°ESE
Pressure: 30.21"   Gusts: NA
Location:  41°N, 75.53°W
Report Text: KMPO 220953Z AUTO 11004KT 6SM BR BKN002 OVC007 M03/M04 A3021 RMK AO2 SNE10 SLP258 P0000 T10331044
Loading
Personal Weather Stations






























Interactive Weather Map New forecast layout! Learn more

10-Day Weather Forecast

Advertisements
Track Severe Weather on mobile